Flight Track Log - Related Links

Times and Time Zones

All times are in EDT time to prevent confusion due to time zone crossing. See the RPA3399 flight status page for this flight to view local times or setup timezone preferences in your user account.

Time Position Orientation Groundspeed Altitude Reporting Facility
EDT Latitude Longitude Course Direction KTS MPH feet Rate Location/Type
Sun 11:45:34 AM 41.7367 -71.4167 162° South 142 163 800  Level Boston Center
Sun 11:46:33 AM 41.7550 -71.3575 67° East 176 203 2,600 1,808 Climbing Boston Center
Sun 11:46:47 AM 41.7564 -71.3403 84° East 213 245 3,000 1,839 Climbing Boston Center
Sun 11:47:35 AM 41.7150 -71.3036 147° Southeast 256 295 4,500 2,422 Climbing Boston Center
Sun 11:48:36 AM 41.6400 -71.2972 176° South 267 307 7,400 2,780 Climbing Boston Center
Sun 11:49:00 AM 41.4387 -71.3333 180° South  Level FlightAware Approximate
Sun 11:49:38 AM 41.5536 -71.2878 175° South 283 326 10,200  Level Boston Center
Sun 11:50:00 AM 41.3698 -71.3061 162° South  Level FlightAware Approximate
Sun 11:50:39 AM 41.4689 -71.2781 175° South 303 349 12,300  Level Boston Center
Sun 11:51:41 AM 41.3789 -71.2703 176° South 321 369 13,700 1,561 Climbing Boston Center
Sun 11:52:42 AM 41.2803 -71.2586 175° South 348 400 15,500 1,805 Climbing Boston Center
Sun 11:53:44 AM 41.1781 -71.2828 190° South 351 404 17,400 1,659 Climbing Boston Center
Sun 11:54:45 AM 41.1233 -71.3833 234° Southwest 345 397 18,900 1,623 Climbing Boston Center
Sun 11:55:46 AM 41.0858 -71.4917 245° Southwest 334 384 20,700 1,512 Climbing Boston Center
Sun 11:56:48 AM 41.0417 -71.6089 243° Southwest 341 392 22,000 634 Climbing Boston Center
Sun 11:57:49 AM 40.9828 -71.7094 232° Southwest 356 410 22,000  Level Boston Center
Sun 11:58:51 AM 40.9250 -71.8114 233° Southwest 350 403 22,000  Level Boston Center
Sun 11:59:52 AM 40.8672 -71.9117 233° Southwest 347 399 22,000  Level Boston Center
Sun 12:00:53 PM 40.8100 -72.0108 233° Southwest 347 399 22,000  Level Boston Center
Sun 12:01:55 PM 40.7397 -72.1314 232° Southwest 346 398 22,000  Level Boston Center
Sun 12:02:56 PM 40.6914 -72.2169 233° Southwest 346 398 22,000  Level Boston Center
Sun 12:03:57 PM 40.6203 -72.3358 232° Southwest 346 398 22,000  Level Boston Center
Sun 12:04:59 PM 40.5625 -72.4344 232° Southwest 346 398 22,000  Level Boston Center
Sun 12:06:00 PM 40.5061 -72.5328 233° Southwest 342 394 22,000  Level Boston Center
Sun 12:07:01 PM 40.4483 -72.6306 232° Southwest 341 392 22,000  Level Boston Center
Sun 12:08:03 PM 40.3900 -72.7306 233° Southwest 341 392 22,000 -146 Level Boston Center
Sun 12:09:04 PM 40.3267 -72.8347 231° Southwest 364 419 21,700 -976 Descending Boston Center
Sun 12:10:06 PM 40.2942 -72.9411 248° West 323 372 20,000 -829 Descending Boston Center
Sun 12:11:07 PM 40.2703 -73.0511 254° West 316 364 20,000  Level Boston Center
Sun 12:12:08 PM 40.2431 -73.1597 252° West 317 365 20,000  Level Boston Center
Sun 12:13:10 PM 40.1608 -73.2511 220° Southwest 351 404 20,000  Level Boston Center
Sun 12:14:11 PM 40.0856 -73.3358 221° Southwest 355 409 20,000  Level Boston Center
Sun 12:15:12 PM 40.0103 -73.4206 221° Southwest 356 410 20,000  Level Boston Center
Sun 12:16:14 PM 39.9247 -73.5167 221° Southwest 361 415 20,000  Level Boston Center
Sun 12:17:15 PM 39.8606 -73.6094 228° Southwest 346 398 20,000  Level Boston Center
Sun 12:19:17 PM 39.7397 -73.7969 230° Southwest 338 389 20,000 -429 Level Washington Center
Sun 12:20:17 PM 39.6825 -73.8900 231° Southwest 333 383 18,700 -1,463 Descending Washington Center
Sun 12:21:20 PM 39.6239 -73.9822 230° Southwest 331 381 17,000 -1,721 Descending Boston Center
Sun 12:22:19 PM 39.5642 -74.0733 230° Southwest 333 383 15,200 -1,538 Descending Washington Center
Sun 12:23:17 PM 39.5111 -74.1658 233° Southwest 333 383 14,000 -600 Descending Washington Center
Sun 12:24:19 PM 39.4350 -74.2347 215° Southwest 328 377 14,000 -558 Level Washington Center
Sun 12:25:26 PM 39.3442 -74.3183 215° Southwest 334 384 12,800 -1,008 Descending Boston Center
Sun 12:26:18 PM 39.2803 -74.3797 217° Southwest 333 383 12,000 -432 Descending Washington Center
Sun 12:27:17 PM 39.2119 -74.4478 218° Southwest 333 383 12,000  Level Washington Center
Sun 12:28:17 PM 39.1650 -74.5369 236° Southwest 310 357 12,000 -496 Level Washington Center
Sun 12:29:18 PM 39.1697 -74.6250 274° West 264 304 11,000 -988 Descending Washington Center
Sun 12:31:07 PM 39.2833 -74.7167 328° Northwest 244 281 9,200 -710 Descending Philadelphia TRACON
Sun 12:32:07 PM 39.3500 -74.7667 330° Northwest 254 292 9,000 -100 Descending Philadelphia TRACON
Sun 12:33:07 PM 39.4167 -74.7833 349° North 249 287 9,000 -200 Level Philadelphia TRACON
Sun 12:34:07 PM 39.4667 -74.8167 333° Northwest 248 285 8,600 -500 Descending Philadelphia TRACON
Sun 12:35:07 PM 39.5333 -74.8333 349° North 246 283 8,000 -400 Descending Philadelphia TRACON
Sun 12:36:07 PM 39.6167 -74.8667 343° North 250 288 7,800 -905 Descending Philadelphia TRACON
Sun 12:37:13 PM 39.6833 -74.8500 11° North 257 296 6,100 -1,136 Descending Philadelphia TRACON
Sun 12:38:19 PM 39.7667 -74.8333 North 255 293 5,300 -1,000 Descending Philadelphia TRACON
Sun 12:39:19 PM 39.8333 -74.8167 11° North 252 290 4,000 -650 Descending Philadelphia TRACON
Sun 12:40:19 PM 39.8833 -74.8333 346° North 180 207 4,000 -150 Level Philadelphia TRACON
Sun 12:41:19 PM 39.9333 -74.8500 346° North 181 208 3,700 -526 Descending Philadelphia TRACON
Sun 12:42:13 PM 39.9333 -74.9000 270° West 194 223 3,000 -783 Descending Philadelphia TRACON
Sun 12:43:14 PM 39.9333 -74.9667 270° West 188 216 2,200 -429 Descending Philadelphia TRACON
Sun 12:44:19 PM 39.9167 -75.0333 252° West 166 191 2,100 -50 Descending Philadelphia TRACON
Sun 12:45:14 PM 39.9000 -75.0833 247° West 170 196 2,100 -365 Level Philadelphia TRACON
Sun 12:46:14 PM 39.9000 -75.1333 270° West 135 155 1,400 -714 Descending Philadelphia TRACON
Sun 12:47:20 PM 39.8833 -75.1833 247° West 136 157 600 -727 Descending Philadelphia TRACON

Login

Don't have an account? Register now (free) for customized features, flight alerts, and more!